EPWR/WRO METAR and TAF weather

Enter ICAO airport designator
Station Type Date Time Source
EPWR METAR 2019/07/20 05:00 UTC NOAA

EPWR 200500Z VRB02KT CAVOK 18/15 Q1016


Station Type Date Time Source
EPWR Decoded METAR 2019/07/20 05:00 UTC NOAA

Wroclaw Ii, Poland (EPWR) 51-06N 016-53E 121M
Jul 20, 2019 - 01:00 AM EDT / 2019.07.20 0500 UTC
Wind: Variable at 2 MPH (2 KT):0
Visibility: greater than 7 mile(s):0
Temperature: 64 F (18 C)
Dew Point: 59 F (15 C)
Relative Humidity: 82%
Pressure (altimeter): 30.00 in. Hg (1016 hPa)
ob: EPWR 200500Z VRB02KT CAVOK 18/15 Q1016
cycle: 5

Station Type Date Time Source
EPWR TAF 2019/07/20 03:33 UTC NOAA

TAF TAF EPWR 200230Z 2003/2103 24006KT CAVOK PROB30
TEMPO 2008/2016 SCT040TCU
TEMPO 2021/2103 SHRA BKN020CB

Example: see airport list